createdAt,value
2018-01-27T00:00:25.177Z,42.23
2018-01-27T00:02:54.242Z,41.70
2018-01-27T00:05:22.521Z,42.17
2018-01-27T00:07:50.825Z,39.73
2018-01-27T00:10:19.873Z,40.70
2018-01-27T00:12:48.976Z,42.03
2018-01-27T00:15:17.278Z,43.53
2018-01-27T00:17:45.835Z,39.13
2018-01-27T00:20:14.104Z,40.77
2018-01-27T00:22:52.688Z,44.80
2018-01-27T00:25:21.710Z,38.43
2018-01-27T00:27:49.982Z,40.63
2018-01-27T00:30:18.338Z,37.80
2018-01-27T00:32:46.629Z,38.53
2018-01-27T00:35:14.947Z,38.00
2018-01-27T00:37:43.684Z,38.50
2018-01-27T00:40:12.772Z,41.53
2018-01-27T00:42:41.826Z,42.10
2018-01-27T00:45:10.404Z,43.37
2018-01-27T00:47:38.710Z,41.77
2018-01-27T00:50:06.998Z,40.63
2018-01-27T00:52:35.309Z,40.80
2018-01-27T00:55:03.586Z,38.20
2018-01-27T00:57:31.894Z,30.33
2018-01-27T01:00:00.166Z,37.97
2018-01-27T01:02:28.488Z,38.40
2018-01-27T01:04:56.747Z,38.57
2018-01-27T01:07:25.304Z,41.83
2018-01-27T01:09:53.569Z,37.40
2018-01-27T01:12:21.892Z,38.37
2018-01-27T01:14:50.219Z,38.13
2018-01-27T01:17:19.285Z,43.40
2018-01-27T01:19:48.405Z,36.90
2018-01-27T01:22:16.682Z,36.30
2018-01-27T01:24:45.317Z,40.97
2018-01-27T01:27:13.590Z,38.83
2018-01-27T01:29:41.850Z,38.43
2018-01-27T01:32:10.154Z,39.40
2018-01-27T01:34:38.448Z,39.70
2018-01-27T01:37:07.562Z,40.80
2018-01-27T01:39:36.602Z,40.63
2018-01-27T01:42:04.896Z,40.10
2018-01-27T01:44:33.176Z,39.53
2018-01-27T01:47:01.474Z,40.73
2018-01-27T01:49:29.764Z,45.37
2018-01-27T01:51:58.840Z,40.90
2018-01-27T01:54:27.128Z,40.40
2018-01-27T01:56:56.505Z,41.07
2018-01-27T01:59:24.828Z,44.13
2018-01-27T02:01:53.124Z,41.23
2018-01-27T02:04:21.818Z,41.67
2018-01-27T02:06:50.085Z,44.40
2018-01-27T02:09:18.380Z,40.90
2018-01-27T02:11:46.670Z,45.80
2018-01-27T02:14:14.977Z,43.50
2018-01-27T02:16:43.261Z,42.80
2018-01-27T02:19:12.585Z,41.43
2018-01-27T02:21:41.645Z,46.97
2018-01-27T02:24:09.963Z,41.30
2018-01-27T02:26:39.013Z,40.90
2018-01-27T02:29:07.328Z,40.67
2018-01-27T02:31:36.401Z,42.63
2018-01-27T02:34:04.681Z,40.70
2018-01-27T02:36:33.241Z,38.77
2018-01-27T02:39:01.504Z,39.33
2018-01-27T02:41:30.097Z,42.37
2018-01-27T02:43:58.416Z,40.27
2018-01-27T02:46:27.435Z,40.17
2018-01-27T02:48:55.750Z,38.40
2018-01-27T02:51:24.024Z,40.13
2018-01-27T02:53:54.341Z,40.73
2018-01-27T02:56:22.600Z,39.40
2018-01-27T02:58:50.867Z,41.67
2018-01-27T03:01:19.189Z,41.07
2018-01-27T03:03:47.476Z,40.80
2018-01-27T03:06:15.778Z,40.83
2018-01-27T03:08:44.828Z,39.70
2018-01-27T03:11:13.452Z,40.10
2018-01-27T03:13:41.725Z,39.60
2018-01-27T03:16:10.025Z,39.37
2018-01-27T03:18:39.082Z,39.30
2018-01-27T03:21:07.360Z,40.27
2018-01-27T03:23:35.673Z,37.10
2018-01-27T03:26:03.942Z,44.97
2018-01-27T03:28:33.354Z,39.80
2018-01-27T03:31:03.317Z,40.17
2018-01-27T03:33:31.599Z,39.87
2018-01-27T03:35:59.911Z,37.40
2018-01-27T03:38:28.249Z,39.83
2018-01-27T03:40:56.536Z,38.43
2018-01-27T03:43:24.822Z,39.50
2018-01-27T03:45:53.184Z,39.80
2018-01-27T03:48:22.220Z,38.53
2018-01-27T03:50:50.530Z,37.80
2018-01-27T03:53:18.880Z,36.83
2018-01-27T03:55:47.120Z,37.07
2018-01-27T03:58:15.520Z,42.30
2018-01-27T04:00:43.808Z,38.00
2018-01-27T04:03:12.112Z,38.20
2018-01-27T04:05:41.163Z,37.67
2018-01-27T04:08:09.544Z,37.70
2018-01-27T04:10:37.832Z,40.30
2018-01-27T04:13:06.118Z,40.00
2018-01-27T04:15:34.806Z,42.87
2018-01-27T04:18:03.078Z,40.10
2018-01-27T04:20:31.378Z,41.03
2018-01-27T04:22:59.676Z,38.47
2018-01-27T04:25:27.952Z,38.53
2018-01-27T04:27:56.248Z,38.07
2018-01-27T04:30:24.560Z,40.13
2018-01-27T04:32:53.201Z,36.10
2018-01-27T04:35:21.494Z,38.87
2018-01-27T04:37:49.784Z,39.37
2018-01-27T04:40:18.092Z,35.20
2018-01-27T04:42:46.391Z,38.40
2018-01-27T04:45:14.881Z,38.53
2018-01-27T04:47:43.914Z,35.00
2018-01-27T04:50:13.308Z,37.53
2018-01-27T04:52:41.580Z,37.30
2018-01-27T04:55:09.846Z,38.47
2018-01-27T04:57:38.142Z,38.97
2018-01-27T05:00:06.453Z,39.50
2018-01-27T05:02:34.777Z,40.97
2018-01-27T05:05:03.825Z,35.53
2018-01-27T05:07:32.440Z,35.80
2018-01-27T05:10:00.694Z,37.07
2018-01-27T05:12:29.760Z,35.30
2018-01-27T05:14:58.284Z,35.80
2018-01-27T05:17:26.556Z,36.30
2018-01-27T05:19:54.843Z,36.33
2018-01-27T05:22:23.900Z,36.57
2018-01-27T05:24:52.187Z,35.30
2018-01-27T05:27:20.453Z,33.57
2018-01-27T05:29:49.069Z,26.83
2018-01-27T05:32:17.346Z,36.57
2018-01-27T05:34:45.614Z,42.20
2018-01-27T05:37:13.925Z,35.93
2018-01-27T05:39:42.975Z,38.40
2018-01-27T05:42:11.283Z,35.03
2018-01-27T05:44:39.559Z,35.90
2018-01-27T05:47:08.240Z,34.90
2018-01-27T05:49:36.504Z,34.37
2018-01-27T05:52:04.796Z,39.80
2018-01-27T05:54:33.156Z,35.30
2018-01-27T05:57:01.388Z,38.10
2018-01-27T05:59:29.695Z,32.33
2018-01-27T06:01:57.976Z,35.23
2018-01-27T06:04:26.603Z,37.33
2018-01-27T06:06:54.912Z,37.43
2018-01-27T06:09:23.187Z,33.70
2018-01-27T06:11:51.495Z,34.50
2018-01-27T06:14:19.775Z,35.60
2018-01-27T06:16:48.347Z,35.30
2018-01-27T06:19:16.638Z,36.53
2018-01-27T06:21:44.898Z,36.97
2018-01-27T06:24:13.190Z,34.20
2018-01-27T06:26:41.452Z,33.83
2018-01-27T06:29:10.512Z,28.30
2018-01-27T06:31:39.593Z,33.80
2018-01-27T06:34:07.880Z,34.83
2018-01-27T06:36:36.164Z,33.87
2018-01-27T06:39:05.260Z,36.50
2018-01-27T06:41:33.543Z,33.07
2018-01-27T06:44:02.609Z,33.80
2018-01-27T06:46:30.966Z,36.10
2018-01-27T06:48:59.289Z,35.20
2018-01-27T06:51:27.611Z,33.13
2018-01-27T06:53:55.896Z,35.10
2018-01-27T06:56:24.485Z,37.77
2018-01-27T06:58:52.813Z,36.27
2018-01-27T07:01:21.886Z,36.87
2018-01-27T07:03:50.196Z,37.10
2018-01-27T07:06:19.285Z,33.43
2018-01-27T07:09:02.204Z,37.07
2018-01-27T07:11:31.294Z,31.87
2018-01-27T07:14:00.440Z,37.20
2018-01-27T07:16:30.942Z,33.87
2018-01-27T07:19:00.055Z,35.07
2018-01-27T07:21:28.917Z,36.23
2018-01-27T07:23:58.013Z,39.80
2018-01-27T07:26:34.885Z,40.73
2018-01-27T07:29:03.161Z,34.47
2018-01-27T07:31:31.509Z,38.30
2018-01-27T07:33:59.776Z,37.73
2018-01-27T07:36:29.378Z,38.23
2018-01-27T07:38:57.632Z,37.30
2018-01-27T07:41:25.996Z,35.30
2018-01-27T07:43:54.270Z,35.60
2018-01-27T07:46:22.574Z,34.77
2018-01-27T07:48:50.872Z,34.80
2018-01-27T07:51:19.151Z,34.07
2018-01-27T07:53:47.463Z,36.07
2018-01-27T07:56:15.756Z,39.40
2018-01-27T07:58:44.828Z,33.40
2018-01-27T08:01:13.104Z,34.30
2018-01-27T08:03:41.409Z,35.00
2018-01-27T08:06:10.559Z,35.93
2018-01-27T08:08:38.822Z,39.90
2018-01-27T08:11:07.133Z,35.00
2018-01-27T08:13:35.421Z,35.60
2018-01-27T08:16:03.799Z,35.37
2018-01-27T08:18:32.086Z,36.27
2018-01-27T08:41:52.742Z,35.20
2018-01-27T08:44:21.822Z,36.70
2018-01-27T08:46:50.153Z,38.50
2018-01-27T08:49:19.818Z,36.47
2018-01-27T08:51:48.264Z,40.17
2018-01-27T08:54:16.579Z,38.20
2018-01-27T08:56:44.940Z,38.57
2018-01-27T08:59:13.290Z,36.80
2018-01-27T09:04:41.452Z,36.60
2018-01-27T09:07:10.529Z,36.47
2018-01-27T09:09:38.931Z,38.13
2018-01-27T09:12:07.231Z,38.37
2018-01-27T09:14:35.585Z,39.07
2018-01-27T09:17:04.637Z,39.60
2018-01-27T09:19:33.001Z,35.70
2018-01-27T09:22:01.382Z,39.87
2018-01-27T09:24:29.676Z,40.60
2018-01-27T09:26:57.961Z,35.00
2018-01-27T09:29:26.268Z,40.90
2018-01-27T09:31:55.339Z,38.10
2018-01-27T09:34:23.631Z,39.43
2018-01-27T09:36:51.940Z,42.07
2018-01-27T09:39:20.222Z,35.47
2018-01-27T09:41:50.619Z,39.50
2018-01-27T09:44:19.214Z,39.50
2018-01-27T09:46:48.306Z,38.23
2018-01-27T09:49:17.520Z,37.67
2018-01-27T09:51:46.988Z,39.33
2018-01-27T09:54:15.297Z,36.17
2018-01-27T09:56:44.473Z,39.97
2018-01-27T09:59:12.810Z,39.70
2018-01-27T10:01:41.291Z,40.67
2018-01-27T10:04:17.369Z,39.90
2018-01-27T10:06:45.960Z,39.67
2018-01-27T10:09:14.285Z,39.70
2018-01-27T10:11:43.331Z,37.47
2018-01-27T10:14:12.401Z,38.73
2018-01-27T10:16:40.733Z,38.50
2018-01-27T10:19:09.718Z,38.13
2018-01-27T10:21:38.508Z,40.10
2018-01-27T10:24:06.807Z,45.00
2018-01-27T10:26:35.124Z,38.57
2018-01-27T10:29:03.424Z,41.20
2018-01-27T10:31:31.731Z,40.47
2018-01-27T10:34:00.039Z,39.90
2018-01-27T10:36:29.090Z,40.27
2018-01-27T10:38:57.402Z,43.70
2018-01-27T10:41:26.447Z,45.63
2018-01-27T10:43:54.790Z,42.80
2018-01-27T10:46:23.090Z,43.20
2018-01-27T10:48:51.418Z,44.90
2018-01-27T10:51:19.700Z,43.47
2018-01-27T10:53:48.027Z,44.00
2018-01-27T10:56:17.163Z,49.10
2018-01-27T10:58:48.241Z,42.70
2018-01-27T11:01:17.384Z,42.57
2018-01-27T11:03:45.703Z,44.47
2018-01-27T11:06:14.037Z,45.00
2018-01-27T11:08:42.380Z,39.23
2018-01-27T11:11:10.674Z,42.60
2018-01-27T11:13:39.003Z,41.20
2018-01-27T11:16:07.275Z,41.70
2018-01-27T11:18:35.602Z,41.40
2018-01-27T11:21:03.896Z,43.87
2018-01-27T11:23:32.246Z,43.03
2018-01-27T11:26:00.575Z,44.60
2018-01-27T11:28:28.878Z,47.80
2018-01-27T11:30:57.230Z,42.70
2018-01-27T11:33:25.507Z,39.53
2018-01-27T11:35:53.842Z,46.80
2018-01-27T11:38:22.141Z,42.70
2018-01-27T11:40:50.461Z,43.03
2018-01-27T11:43:18.772Z,42.80
2018-01-27T11:45:47.114Z,41.60
2018-01-27T11:48:15.404Z,43.93
2018-01-27T11:50:43.705Z,44.97
2018-01-27T11:53:12.837Z,43.07
2018-01-27T11:55:41.127Z,43.93
2018-01-27T11:58:09.622Z,43.33
2018-01-27T12:00:37.890Z,46.10
2018-01-27T12:03:06.213Z,44.80
2018-01-27T12:05:35.315Z,43.30
2018-01-27T12:08:04.492Z,42.57
2018-01-27T12:10:32.872Z,45.97
2018-01-27T12:13:01.566Z,42.93
2018-01-27T12:15:29.933Z,39.37
2018-01-27T12:17:58.321Z,43.90
2018-01-27T12:20:26.730Z,43.87
2018-01-27T12:22:55.113Z,45.37
2018-01-27T12:25:24.229Z,44.77
2018-01-27T12:27:52.550Z,46.73
2018-01-27T12:30:20.897Z,36.47
2018-01-27T12:32:49.489Z,43.20
2018-01-27T12:35:17.824Z,40.07
2018-01-27T12:37:46.205Z,44.23
2018-01-27T12:40:14.721Z,41.77
2018-01-27T12:42:44.143Z,39.87
2018-01-27T12:45:12.429Z,45.03
2018-01-27T12:47:41.029Z,41.93
2018-01-27T12:50:09.474Z,40.80
2018-01-27T12:52:37.782Z,39.83
2018-01-27T12:55:06.873Z,40.37
2018-01-27T12:57:35.267Z,37.93
2018-01-27T13:00:03.639Z,37.30
2018-01-27T13:02:31.906Z,39.33
2018-01-27T13:05:00.233Z,40.40
2018-01-27T13:07:28.545Z,39.97
2018-01-27T13:09:56.885Z,37.13
2018-01-27T13:12:25.968Z,38.50
2018-01-27T13:14:54.485Z,38.37
2018-01-27T13:17:23.648Z,38.57
2018-01-27T13:19:51.932Z,35.53
2018-01-27T13:22:21.009Z,36.20
2018-01-27T13:24:49.302Z,37.13
2018-01-27T13:27:17.650Z,38.60
2018-01-27T13:29:45.949Z,38.47
2018-01-27T13:32:14.247Z,36.73
2018-01-27T13:34:43.326Z,34.27
2018-01-27T13:37:11.647Z,37.07
2018-01-27T13:39:39.952Z,34.47
2018-01-27T13:42:08.326Z,35.83
2018-01-27T13:44:36.654Z,33.53
2018-01-27T13:47:04.938Z,38.13
2018-01-27T13:49:34.334Z,40.93
2018-01-27T13:52:03.386Z,39.67
2018-01-27T13:54:31.699Z,41.03
2018-01-27T13:56:59.989Z,40.90
2018-01-27T13:59:29.073Z,45.10
2018-01-27T14:01:57.386Z,43.80
2018-01-27T14:04:25.701Z,45.83
2018-01-27T14:06:54.030Z,46.60
2018-01-27T14:09:23.121Z,44.07
2018-01-27T14:11:52.257Z,41.00
2018-01-27T14:14:20.585Z,46.10
2018-01-27T14:16:49.656Z,42.60
2018-01-27T14:19:17.971Z,46.23
2018-01-27T14:21:51.086Z,45.23
2018-01-27T14:42:34.846Z,41.23
2018-01-27T14:45:03.157Z,41.33
2018-01-27T14:47:31.470Z,42.50
2018-01-27T14:49:59.776Z,39.90
2018-01-27T14:52:28.069Z,39.57
2018-01-27T14:54:56.512Z,44.70
2018-01-27T14:57:24.788Z,43.53
2018-01-27T14:59:53.132Z,42.53
2018-01-27T15:02:21.418Z,39.10
2018-01-27T15:07:50.774Z,38.17
2018-01-27T15:10:36.349Z,46.77
2018-01-27T15:13:04.658Z,40.93
2018-01-27T15:15:33.710Z,45.27
2018-01-27T15:18:02.042Z,46.80
2018-01-27T15:20:30.340Z,47.03
2018-01-27T15:22:58.724Z,48.90
2018-01-27T15:25:27.035Z,43.80
2018-01-27T15:27:55.329Z,44.17
2018-01-27T15:30:24.410Z,46.50
2018-01-27T15:32:52.704Z,45.93
2018-01-27T15:35:22.048Z,40.03
2018-01-27T15:37:50.397Z,41.87
2018-01-27T15:40:19.448Z,39.70
2018-01-27T15:42:47.793Z,45.27
2018-01-27T15:45:16.071Z,34.17
2018-01-27T15:47:44.394Z,42.83
2018-01-27T15:50:12.689Z,43.50
2018-01-27T15:52:42.184Z,46.23
2018-01-27T15:55:10.486Z,50.90
2018-01-27T15:57:39.530Z,44.63
2018-01-27T16:00:07.848Z,47.13
2018-01-27T16:02:36.185Z,49.63
2018-01-27T16:05:05.121Z,46.83
2018-01-27T16:07:34.207Z,46.43
2018-01-27T16:10:02.551Z,48.07
2018-01-27T16:12:30.847Z,45.47
2018-01-27T16:14:59.145Z,47.97
2018-01-27T16:17:27.462Z,45.93
2018-01-27T16:19:55.796Z,48.03
2018-01-27T16:22:24.114Z,45.97
2018-01-27T16:24:52.432Z,47.87
2018-01-27T16:27:21.567Z,42.30
2018-01-27T16:29:49.851Z,47.10
2018-01-27T16:32:18.945Z,48.07
2018-01-27T16:34:47.283Z,46.50
2018-01-27T16:37:15.568Z,49.47
2018-01-27T16:39:44.694Z,48.33
2018-01-27T16:42:13.758Z,42.97
2018-01-27T16:44:42.102Z,40.90
2018-01-27T16:47:10.437Z,30.13
2018-01-27T16:49:38.747Z,40.73
2018-01-27T16:52:07.846Z,39.27
2018-01-27T16:54:36.913Z,43.03
2018-01-27T16:57:05.251Z,42.30
2018-01-27T16:59:34.368Z,43.73
2018-01-27T17:02:02.734Z,43.30
2018-01-27T17:04:31.042Z,40.63
2018-01-27T17:06:59.388Z,42.47
2018-01-27T17:09:27.709Z,41.73
2018-01-27T17:11:56.004Z,38.37
2018-01-27T17:14:24.334Z,41.50
2018-01-27T17:16:54.600Z,44.50
2018-01-27T17:19:22.945Z,38.10
2018-01-27T17:21:51.243Z,41.43
2018-01-27T17:24:20.614Z,45.05
2018-01-27T17:26:48.987Z,46.60
2018-01-27T17:29:17.262Z,42.47
2018-01-27T17:31:45.582Z,43.30
2018-01-27T17:34:13.872Z,38.83
2018-01-27T17:36:42.964Z,37.87
2018-01-27T17:39:11.857Z,35.93
2018-01-27T17:41:40.141Z,32.90
2018-01-27T17:44:09.206Z,34.70
2018-01-27T17:46:37.489Z,35.00
2018-01-27T17:49:05.802Z,33.97
2018-01-27T17:51:34.088Z,32.70
2018-01-27T17:54:02.462Z,33.80
2018-01-27T17:56:31.553Z,32.27
2018-01-27T17:59:00.641Z,34.10
2018-01-27T18:01:29.715Z,32.57
2018-01-27T18:03:58.015Z,36.67
2018-01-27T18:06:27.128Z,35.77
2018-01-27T18:08:55.444Z,34.80
2018-01-27T18:11:24.591Z,32.50
2018-01-27T18:13:53.669Z,32.33
2018-01-27T18:16:22.802Z,32.47
2018-01-27T18:18:51.096Z,34.27
2018-01-27T18:21:19.431Z,34.30
2018-01-27T18:23:47.728Z,35.80
2018-01-27T18:26:16.042Z,38.57
2018-01-27T18:28:44.347Z,36.33
2018-01-27T18:31:12.695Z,37.57
2018-01-27T18:33:41.035Z,33.33
2018-01-27T18:36:09.324Z,38.90
2018-01-27T18:38:38.116Z,39.57
2018-01-27T18:41:06.426Z,38.50
2018-01-27T18:43:34.804Z,33.63
2018-01-27T18:46:03.102Z,37.07
2018-01-27T18:48:31.382Z,32.13
2018-01-27T18:50:59.741Z,36.00
2018-01-27T18:53:28.063Z,35.13
2018-01-27T18:55:56.489Z,37.10
2018-01-27T18:58:25.537Z,35.33
2018-01-27T19:00:54.634Z,37.07
2018-01-27T19:03:23.320Z,35.70
2018-01-27T19:05:51.846Z,37.67
2018-01-27T19:08:20.143Z,40.40
2018-01-27T19:10:48.459Z,33.70
2018-01-27T19:13:16.781Z,33.40
2018-01-27T19:15:45.156Z,34.50
2018-01-27T19:18:13.479Z,32.70
2018-01-27T19:20:41.771Z,35.67
2018-01-27T19:23:10.142Z,35.87
2018-01-27T19:25:38.477Z,32.40
2018-01-27T19:28:06.772Z,34.20
2018-01-27T19:30:35.125Z,33.43
2018-01-27T19:33:03.475Z,31.73
2018-01-27T19:35:31.788Z,35.27
2018-01-27T19:38:02.656Z,35.47
2018-01-27T19:40:30.984Z,33.70
2018-01-27T19:43:00.129Z,35.87
2018-01-27T19:45:28.398Z,32.80
2018-01-27T19:47:56.736Z,35.30
2018-01-27T19:50:25.780Z,36.23
2018-01-27T19:52:54.137Z,33.30
2018-01-27T19:55:23.321Z,33.23
2018-01-27T19:57:51.636Z,36.63
2018-01-27T20:00:19.941Z,30.83
2018-01-27T20:02:49.079Z,33.33
2018-01-27T20:05:18.133Z,32.97
2018-01-27T20:07:46.511Z,32.07
2018-01-27T20:10:15.757Z,34.77
2018-01-27T20:12:46.032Z,31.50
2018-01-27T20:15:14.407Z,31.63
2018-01-27T20:17:42.708Z,30.30
2018-01-27T20:20:11.044Z,33.20
2018-01-27T20:22:39.340Z,32.90
2018-01-27T20:25:07.935Z,30.77
2018-01-27T20:27:36.259Z,33.30
2018-01-27T20:30:04.595Z,35.07
2018-01-27T20:32:32.899Z,33.30
2018-01-27T20:35:01.238Z,33.00
2018-01-27T20:37:29.549Z,31.37
2018-01-27T20:39:57.868Z,27.70
2018-01-27T20:42:26.172Z,29.83
2018-01-27T20:44:54.446Z,31.87
2018-01-27T20:47:23.148Z,29.27
2018-01-27T20:49:51.453Z,27.90
2018-01-27T20:52:20.511Z,27.27
2018-01-27T20:54:48.876Z,29.17
2018-01-27T20:57:17.155Z,28.30
2018-01-27T20:59:45.474Z,29.30
2018-01-27T21:02:13.751Z,29.03
2018-01-27T21:04:42.091Z,28.37
2018-01-27T21:07:10.398Z,32.57
2018-01-27T21:09:38.688Z,27.83
2018-01-27T21:12:07.017Z,28.27
2018-01-27T21:14:36.060Z,29.67
2018-01-27T21:17:04.379Z,27.93
2018-01-27T21:19:32.678Z,30.27
2018-01-27T21:22:01.011Z,21.47
2018-01-27T21:24:30.211Z,24.37
2018-01-27T21:26:59.320Z,27.37
2018-01-27T21:29:27.668Z,26.40
2018-01-27T21:31:55.962Z,29.37
2018-01-27T21:34:24.448Z,25.87
2018-01-27T21:36:53.663Z,27.00
2018-01-27T21:39:22.807Z,29.23
2018-01-27T21:41:51.200Z,26.57
2018-01-27T21:44:21.083Z,25.88
2018-01-27T21:46:49.350Z,28.50
2018-01-27T21:49:17.614Z,26.73
2018-01-27T21:51:46.109Z,24.13
2018-01-27T21:54:15.298Z,26.70
2018-01-27T21:56:43.700Z,26.73
2018-01-27T21:59:12.022Z,26.63
2018-01-27T22:01:41.237Z,24.90
2018-01-27T22:04:10.288Z,26.80
2018-01-27T22:06:38.571Z,27.30
2018-01-27T22:09:06.891Z,26.13
2018-01-27T22:11:35.964Z,29.90
2018-01-27T22:14:04.323Z,28.27
2018-01-27T22:16:32.633Z,30.47
2018-01-27T22:19:01.042Z,27.40
2018-01-27T22:21:29.341Z,25.90
2018-01-27T22:23:57.994Z,24.93
2018-01-27T22:26:27.316Z,26.63
2018-01-27T22:28:55.787Z,24.80
2018-01-27T22:31:25.000Z,25.40
2018-01-27T22:33:53.326Z,25.93
2018-01-27T22:36:21.643Z,22.47
2018-01-27T22:38:50.007Z,25.53
2018-01-27T22:41:20.443Z,24.80
2018-01-27T22:43:49.630Z,25.60
2018-01-27T22:46:17.985Z,21.47
2018-01-27T22:48:46.353Z,23.90
2018-01-27T22:51:14.667Z,23.30
2018-01-27T22:53:43.015Z,24.40
2018-01-27T22:56:12.042Z,21.60
2018-01-27T22:58:41.370Z,20.57
2018-01-27T23:01:16.066Z,21.30
2018-01-27T23:03:45.264Z,21.50
2018-01-27T23:06:13.603Z,22.00
2018-01-27T23:08:43.879Z,21.27
2018-01-27T23:11:12.975Z,21.33
2018-01-27T23:13:41.382Z,22.33
2018-01-27T23:16:09.824Z,20.70
2018-01-27T23:18:39.067Z,19.00
2018-01-27T23:21:09.210Z,21.40
2018-01-27T23:23:37.611Z,19.93
2018-01-27T23:26:05.953Z,21.20
2018-01-27T23:28:34.289Z,20.30
2018-01-27T23:31:02.776Z,19.30
2018-01-27T23:33:32.009Z,17.57
2018-01-27T23:36:00.305Z,18.80
2018-01-27T23:38:29.387Z,19.23
2018-01-27T23:40:57.702Z,18.23
2018-01-27T23:43:26.017Z,17.87
2018-01-27T23:45:55.158Z,16.87
2018-01-27T23:48:23.629Z,19.03
2018-01-27T23:50:51.919Z,20.57
2018-01-27T23:53:20.266Z,17.87
2018-01-27T23:55:48.584Z,17.33
2018-01-27T23:58:17.090Z,19.87
